Time;durP1;ratioP1;P1;durP2;ratioP2;P2;SDS_P1;SDS_P2;PMS_P1;PMS_P2;Temp;Humidity;BMP_temperature;BMP_pressure;BME280_temperature;BME280_humidity;BME280_pressure;Samples;Min_cycle;Max_cycle;Signal;HPM_P1;HPM_P2
2023/09/10 00:00:48;;;;;;;3.80;0.95;;;15.70;99.00;;;;;;4942247;29;20204;-84
2023/09/10 00:03:19;;;;;;;3.33;0.75;;;16.00;98.60;;;;;;4943861;29;20192;-84
2023/09/10 00:05:49;;;;;;;2.33;1.02;;;16.00;99.10;;;;;;4954860;29;20207;-85
2023/09/10 00:08:20;;;;;;;1.27;0.73;;;16.20;98.40;;;;;;4952572;28;20230;-85
2023/09/10 00:10:51;;;;;;;4.60;1.00;;;16.30;97.40;;;;;;4936663;29;20613;-86
2023/09/10 00:13:24;;;;;;;2.47;0.80;;;16.40;97.10;;;;;;4937626;29;20208;-85
2023/09/10 00:15:56;;;;;;;2.53;0.90;;;16.50;96.20;;;;;;4955368;29;20204;-85
2023/09/10 00:18:27;;;;;;;4.18;0.98;;;16.50;94.90;;;;;;4955220;29;20196;-85
2023/09/10 00:20:58;;;;;;;3.60;0.93;;;16.50;95.20;;;;;;4941374;29;20197;-86
2023/09/10 00:23:28;;;;;;;3.10;0.98;;;16.70;95.40;;;;;;4943839;29;20200;-86
2023/09/10 00:25:59;;;;;;;2.65;0.90;;;16.70;95.00;;;;;;4937218;29;20226;-86
2023/09/10 00:28:32;;;;;;;3.05;0.98;;;16.90;95.80;;;;;;4974450;29;20263;-85
2023/09/10 00:31:04;;;;;;;3.60;0.70;;;17.00;95.50;;;;;;4945798;29;20220;-86
2023/09/10 00:33:35;;;;;;;2.92;1.08;;;17.20;95.20;;;;;;4932885;29;20241;-86
2023/09/10 00:36:08;;;;;;;3.33;1.10;;;17.20;93.40;;;;;;4917901;29;20201;-86
2023/09/10 00:38:39;;;;;;;2.47;1.08;;;17.20;93.30;;;;;;4934746;29;20243;-85
2023/09/10 00:41:10;;;;;;;4.00;1.10;;;17.30;92.70;;;;;;4933524;29;20208;-86
2023/09/10 00:43:43;;;;;;;3.05;0.90;;;17.40;92.70;;;;;;4916484;29;20222;-86
2023/09/10 00:46:14;;;;;;;3.28;0.80;;;17.50;92.80;;;;;;4917083;29;20293;-86
2023/09/10 00:48:45;;;;;;;1.90;0.93;;;17.60;91.00;;;;;;4916892;29;20205;-86
2023/09/10 00:51:16;;;;;;;2.70;0.98;;;17.60;90.60;;;;;;4916947;29;20746;-86
2023/09/10 00:53:47;;;;;;;4.18;0.95;;;17.70;90.50;;;;;;4916756;29;20206;-86
2023/09/10 00:56:18;;;;;;;5.50;1.00;;;17.70;89.90;;;;;;4930965;29;20203;-85
2023/09/10 00:58:51;;;;;;;2.75;0.80;;;17.70;90.10;;;;;;4934651;29;20687;-85
2023/09/10 01:01:22;;;;;;;2.90;1.23;;;17.80;89.20;;;;;;4919891;29;20212;-85
2023/09/10 01:03:53;;;;;;;2.28;0.82;;;17.90;87.70;;;;;;4916344;29;20213;-86
2023/09/10 01:06:25;;;;;;;2.25;0.95;;;18.00;86.20;;;;;;4930418;29;20694;-87
2023/09/10 01:08:56;;;;;;;3.42;0.90;;;18.10;84.60;;;;;;4934626;29;20852;-86
2023/09/10 01:11:34;;;;;;;3.30;0.90;;;18.00;84.70;;;;;;4922077;29;20594;-86
2023/09/10 01:14:13;;;;;;;2.85;0.93;;;18.00;84.80;;;;;;4934938;29;20664;-87
2023/09/10 01:16:50;;;;;;;4.55;1.00;;;18.10;84.90;;;;;;4928374;29;20203;-87
2023/09/10 01:19:43;;;;;;;3.10;0.98;;;18.20;83.30;;;;;;4935690;29;20216;-86
2023/09/10 01:22:22;;;;;;;4.88;0.90;;;18.30;82.10;;;;;;4935021;29;20204;-85
2023/09/10 01:24:56;;;;;;;2.65;0.93;;;18.30;83.00;;;;;;4935560;29;20185;-85
2023/09/10 01:27:27;;;;;;;3.83;0.98;;;18.30;81.20;;;;;;4934958;29;20227;-86
2023/09/10 01:29:58;;;;;;;6.50;1.20;;;18.50;80.70;;;;;;4930926;29;20222;-85
2023/09/10 01:32:33;;;;;;;1.50;0.70;;;18.40;75.80;;;;;;4929010;29;20312;-86
2023/09/10 01:35:22;;;;;;;2.30;0.77;;;18.40;77.20;;;;;;4954811;28;20212;-86
2023/09/10 01:38:03;;;;;;;8.20;0.88;;;18.50;76.50;;;;;;4919587;29;20255;-86
2023/09/10 01:40:51;;;;;;;1.58;0.82;;;18.70;75.40;;;;;;4922559;29;20292;-86
2023/09/10 01:43:23;;;;;;;2.85;0.70;;;18.70;73.20;;;;;;4939131;29;20199;-85
2023/09/10 01:45:54;;;;;;;2.42;1.00;;;18.70;68.50;;;;;;4946701;29;20196;-86
2023/09/10 01:48:26;;;;;;;1.77;0.70;;;18.90;71.30;;;;;;4934765;29;20657;-86
2023/09/10 01:50:57;;;;;;;1.52;0.68;;;19.00;69.90;;;;;;4915832;29;20224;-84
2023/09/10 01:53:28;;;;;;;2.53;0.73;;;19.10;65.60;;;;;;4915597;29;20212;-85
2023/09/10 01:56:01;;;;;;;2.30;0.70;;;19.20;65.00;;;;;;4920089;29;20195;-85
2023/09/10 01:58:32;;;;;;;2.95;0.90;;;19.20;65.90;;;;;;4934294;29;20204;-85
2023/09/10 02:01:02;;;;;;;2.97;0.75;;;18.90;59.20;;;;;;4923924;29;20224;-84
2023/09/10 02:03:33;;;;;;;3.00;0.90;;;18.40;59.30;;;;;;4930546;29;20255;-85
2023/09/10 02:06:05;;;;;;;3.83;0.75;;;18.60;60.80;;;;;;4929494;29;20203;-85
2023/09/10 02:08:36;;;;;;;2.50;0.77;;;18.80;60.50;;;;;;4926960;29;20268;-85
2023/09/10 02:11:09;;;;;;;0.98;0.52;;;18.80;59.60;;;;;;4923731;29;20626;-85
2023/09/10 02:13:41;;;;;;;2.28;0.88;;;18.80;61.40;;;;;;4914989;29;20197;-85
2023/09/10 02:16:11;;;;;;;1.48;0.60;;;19.10;59.70;;;;;;4923356;29;20260;-87
2023/09/10 02:18:42;;;;;;;1.38;0.63;;;19.20;58.10;;;;;;4933785;29;20665;-87
2023/09/10 02:21:14;;;;;;;1.70;0.43;;;19.10;57.50;;;;;;4930158;29;20201;-86
2023/09/10 02:23:45;;;;;;;2.30;0.80;;;19.20;59.10;;;;;;4933320;29;20656;-86
2023/09/10 02:26:21;;;;;;;2.25;0.70;;;19.50;59.30;;;;;;4926042;29;20536;-86
2023/09/10 02:28:51;;;;;;;1.90;0.70;;;19.70;58.20;;;;;;4915481;29;20208;-87
2023/09/10 02:31:27;;;;;;;2.83;0.60;;;19.90;56.80;;;;;;4929152;29;20225;-87
2023/09/10 02:34:00;;;;;;;2.58;0.70;;;19.80;56.70;;;;;;4933909;29;20228;-87
2023/09/10 02:36:32;;;;;;;1.65;0.60;;;20.00;56.00;;;;;;4933058;29;20208;-86
2023/09/10 02:39:06;;;;;;;3.13;0.70;;;19.80;56.20;;;;;;4934632;29;20203;-85
2023/09/10 02:41:39;;;;;;;3.42;0.85;;;20.00;56.40;;;;;;4933588;29;20221;-86
2023/09/10 02:44:09;;;;;;;2.72;0.60;;;19.90;55.50;;;;;;4927005;29;20216;-86
2023/09/10 02:46:40;;;;;;;1.67;0.50;;;19.90;55.20;;;;;;4925662;29;20208;-88
2023/09/10 02:49:11;;;;;;;1.45;0.70;;;20.00;55.30;;;;;;4934919;29;20671;-88
2023/09/10 02:51:42;;;;;;;2.53;0.80;;;20.30;56.20;;;;;;4935100;29;20307;-89
2023/09/10 02:54:12;;;;;;;1.55;0.52;;;20.50;54.90;;;;;;4930492;29;20209;-89
2023/09/10 02:56:46;;;;;;;2.58;0.60;;;20.60;54.20;;;;;;4917377;29;20557;-90
2023/09/10 02:59:23;;;;;;;2.33;0.60;;;20.70;54.20;;;;;;4919319;29;20200;-90
2023/09/10 03:01:54;;;;;;;2.92;0.60;;;20.90;54.30;;;;;;4919282;29;20217;-88
2023/09/10 03:04:25;;;;;;;1.90;0.70;;;21.10;54.00;;;;;;4938569;29;20208;-89
2023/09/10 03:07:01;;;;;;;1.00;0.60;;;21.30;53.40;;;;;;4938385;29;20201;-89
2023/09/10 03:09:31;;;;;;;3.42;0.90;;;21.20;52.30;;;;;;4936963;29;20235;-88
2023/09/10 03:12:23;;;;;;;1.73;0.60;;;21.30;52.40;;;;;;4938053;29;20228;-85
2023/09/10 03:14:54;;;;;;;1.73;0.60;;;21.40;52.20;;;;;;4918579;29;20212;-88
2023/09/10 03:17:25;;;;;;;1.98;0.75;;;21.50;51.70;;;;;;4918870;29;20606;-88
2023/09/10 03:19:56;;;;;;;1.58;0.63;;;21.70;50.80;;;;;;4918668;29;20201;-88
2023/09/10 03:22:26;;;;;;;2.45;0.60;;;21.50;50.60;;;;;;4935052;29;20209;-87
2023/09/10 03:24:57;;;;;;;1.05;0.40;;;21.50;51.10;;;;;;4922162;29;20201;-89
2023/09/10 03:27:30;;;;;;;1.58;0.60;;;21.60;50.60;;;;;;4936456;29;20208;-91
2023/09/10 03:30:00;;;;;;;1.27;0.50;;;21.60;50.30;;;;;;4937549;29;20208;-90
2023/09/10 03:32:32;;;;;;;2.72;0.90;;;21.50;50.00;;;;;;4940213;29;20228;-88
2023/09/10 03:35:04;;;;;;;2.10;0.75;;;21.60;50.10;;;;;;4932264;29;20223;-89
2023/09/10 03:37:36;;;;;;;1.27;0.60;;;21.50;49.70;;;;;;4938407;29;20224;-90
2023/09/10 03:40:07;;;;;;;1.40;0.70;;;21.50;50.80;;;;;;4939734;29;20190;-89
2023/09/10 03:42:40;;;;;;;2.92;0.82;;;21.50;49.80;;;;;;4918665;29;20638;-91
2023/09/10 03:45:11;;;;;;;3.15;0.95;;;21.50;52.70;;;;;;4919336;29;20209;-92
2023/09/10 03:47:42;;;;;;;3.92;1.10;;;21.10;57.40;;;;;;4935867;29;20204;-90
2023/09/10 03:50:14;;;;;;;2.92;0.80;;;21.10;57.90;;;;;;4947413;29;20207;-89
2023/09/10 03:52:45;;;;;;;2.35;0.80;;;20.80;58.50;;;;;;4953376;29;20193;-90
2023/09/10 03:55:16;;;;;;;3.83;0.95;;;20.60;59.80;;;;;;4934240;29;20189;-91
2023/09/10 03:57:48;;;;;;;2.78;0.90;;;20.60;61.90;;;;;;4935838;29;20204;-89
2023/09/10 04:00:19;;;;;;;2.97;1.00;;;20.40;61.60;;;;;;4924700;29;20197;-90
2023/09/10 04:02:50;;;;;;;5.00;0.88;;;20.10;64.40;;;;;;4919037;29;20198;-89
2023/09/10 04:05:21;;;;;;;3.78;1.10;;;20.20;65.40;;;;;;4927513;29;20201;-89
2023/09/10 04:07:51;;;;;;;2.45;0.77;;;20.30;63.60;;;;;;4935907;29;20227;-90
2023/09/10 04:10:23;;;;;;;5.38;1.00;;;20.10;63.20;;;;;;4937033;29;20204;-89
2023/09/10 04:12:55;;;;;;;6.65;0.93;;;20.10;64.90;;;;;;4936469;29;20243;-90
2023/09/10 04:15:26;;;;;;;2.03;0.80;;;20.00;64.70;;;;;;4937103;29;20211;-89
2023/09/10 04:17:57;;;;;;;2.00;0.80;;;19.90;65.60;;;;;;4936886;29;20192;-90
2023/09/10 04:20:27;;;;;;;5.25;1.10;;;19.90;64.70;;;;;;4933106;29;20203;-89
2023/09/10 04:22:58;;;;;;;2.80;0.70;;;19.80;65.10;;;;;;4928119;29;20196;-89
2023/09/10 04:25:29;;;;;;;2.88;0.85;;;19.70;67.00;;;;;;4937464;29;20200;-89
2023/09/10 04:28:01;;;;;;;2.92;0.80;;;19.60;69.50;;;;;;4936541;29;20665;-89
2023/09/10 04:30:34;;;;;;;3.63;0.80;;;19.70;70.00;;;;;;4937021;29;20611;-88
2023/09/10 04:33:04;;;;;;;7.25;1.10;;;19.70;71.10;;;;;;4923931;29;20272;-89
2023/09/10 04:35:35;;;;;;;3.50;0.90;;;19.70;73.10;;;;;;4930125;29;20220;-88
2023/09/10 04:38:06;;;;;;;3.45;0.80;;;19.70;74.00;;;;;;4935598;29;20201;-89
2023/09/10 04:40:37;;;;;;;2.10;0.82;;;19.60;76.30;;;;;;4918193;29;20208;-89
2023/09/10 04:43:10;;;;;;;2.55;0.80;;;19.60;75.70;;;;;;4918120;29;20578;-89
2023/09/10 04:45:40;;;;;;;3.67;1.05;;;19.60;75.70;;;;;;4931398;29;20205;-90
2023/09/10 04:48:12;;;;;;;6.28;1.13;;;19.70;78.00;;;;;;4937005;29;20211;-90
2023/09/10 04:50:43;;;;;;;3.20;0.70;;;19.60;78.90;;;;;;4916815;29;20205;-88
2023/09/10 04:53:15;;;;;;;2.38;0.77;;;19.30;81.30;;;;;;4937414;29;20201;-89
2023/09/10 04:55:46;;;;;;;2.35;0.50;;;18.90;83.00;;;;;;4948078;29;20210;-87
2023/09/10 04:58:19;;;;;;;2.95;0.60;;;18.90;82.70;;;;;;4937022;29;20205;-87
2023/09/10 05:00:51;;;;;;;2.35;0.65;;;19.00;83.80;;;;;;4930748;29;20212;-89
2023/09/10 05:03:23;;;;;;;3.50;1.02;;;19.10;85.00;;;;;;4932206;29;20188;-87
2023/09/10 05:06:00;;;;;;;3.47;0.95;;;19.10;83.90;;;;;;4934759;29;20268;-86
2023/09/10 05:08:34;;;;;;;1.67;0.60;;;19.10;85.20;;;;;;4936191;29;20220;-87
2023/09/10 05:11:04;;;;;;;1.40;0.57;;;19.00;85.80;;;;;;4936261;29;20229;-88
2023/09/10 05:13:38;;;;;;;1.65;0.60;;;19.20;84.40;;;;;;4923809;29;20213;-87
2023/09/10 05:16:09;;;;;;;1.80;0.70;;;19.10;82.00;;;;;;4917993;29;20201;-88
2023/09/10 05:18:39;;;;;;;2.47;0.88;;;19.10;82.70;;;;;;4914923;29;20204;-89
2023/09/10 05:21:10;;;;;;;2.30;1.10;;;19.30;82.50;;;;;;4928926;29;20204;-88
2023/09/10 05:23:39;;;;;;;2.75;0.88;;;19.40;80.70;;;;;;4941144;29;20201;-89
2023/09/10 05:26:12;;;;;;;4.82;1.40;;;19.30;81.50;;;;;;4957482;28;20189;-88
2023/09/10 05:28:45;;;;;;;2.58;1.15;;;19.30;81.80;;;;;;4957313;29;20248;-88
2023/09/10 05:31:15;;;;;;;4.47;0.80;;;19.30;82.70;;;;;;4941082;29;20209;-86
2023/09/10 05:33:46;;;;;;;2.85;0.70;;;19.40;84.50;;;;;;4941468;28;20233;-87
2023/09/10 05:36:17;;;;;;;3.90;1.02;;;19.30;82.20;;;;;;4940227;29;20208;-88
2023/09/10 05:38:47;;;;;;;5.03;0.80;;;19.20;80.20;;;;;;4936584;29;20281;-87
2023/09/10 05:41:18;;;;;;;2.25;0.68;;;19.20;82.90;;;;;;4922049;29;20205;-87
2023/09/10 05:43:51;;;;;;;3.20;0.70;;;19.40;84.80;;;;;;4920911;29;20201;-87
2023/09/10 05:46:21;;;;;;;2.17;0.65;;;19.10;83.50;;;;;;4932425;29;20228;-86
2023/09/10 05:48:52;;;;;;;2.10;0.80;;;19.10;85.20;;;;;;4917016;29;20212;-86
2023/09/10 05:51:23;;;;;;;1.70;0.73;;;19.10;87.60;;;;;;4925742;29;20220;-86
2023/09/10 05:53:53;;;;;;;1.75;0.70;;;19.20;87.70;;;;;;4935548;29;20683;-87
2023/09/10 05:56:26;;;;;;;3.03;0.68;;;19.20;86.00;;;;;;4939831;29;20203;-87
2023/09/10 05:58:59;;;;;;;3.10;0.75;;;19.20;86.30;;;;;;4935782;29;20231;-87
2023/09/10 06:01:30;;;;;;;3.05;0.70;;;19.20;85.70;;;;;;4950288;29;20748;-86
2023/09/10 06:04:01;;;;;;;4.45;0.70;;;19.10;87.90;;;;;;4928484;29;20216;-87
2023/09/10 06:06:31;;;;;;;1.92;0.70;;;19.40;88.90;;;;;;4924472;29;20205;-86
2023/09/10 06:09:02;;;;;;;2.58;1.00;;;19.60;89.60;;;;;;4934847;29;20624;-87
2023/09/10 06:11:34;;;;;;;2.67;0.52;;;19.80;88.80;;;;;;4933763;29;20232;-85
2023/09/10 06:14:06;;;;;;;3.17;0.80;;;20.00;89.10;;;;;;4934907;29;20212;-87
2023/09/10 06:16:37;;;;;;;3.60;0.80;;;20.00;86.70;;;;;;4928550;29;20206;-87
2023/09/10 06:19:08;;;;;;;5.38;0.77;;;19.90;87.20;;;;;;4933948;29;20203;-87
2023/09/10 06:21:39;;;;;;;1.63;0.80;;;20.00;88.40;;;;;;4927345;29;20267;-87
2023/09/10 06:24:09;;;;;;;2.30;0.88;;;19.90;87.50;;;;;;4935360;29;20572;-87
2023/09/10 06:26:41;;;;;;;3.42;1.05;;;20.00;87.20;;;;;;4927172;29;20223;-88
2023/09/10 06:29:14;;;;;;;3.08;1.13;;;20.20;85.20;;;;;;4921120;29;20196;-89
2023/09/10 06:31:45;;;;;;;3.22;0.90;;;20.10;85.50;;;;;;4927189;29;20232;-88
2023/09/10 06:34:16;;;;;;;2.75;1.15;;;20.10;86.10;;;;;;4922724;29;20691;-89
2023/09/10 06:36:47;;;;;;;2.70;0.90;;;20.00;86.70;;;;;;4924548;29;20228;-89
2023/09/10 06:39:18;;;;;;;1.75;0.70;;;19.90;86.60;;;;;;4934944;29;20200;-90
2023/09/10 06:41:49;;;;;;;1.88;0.80;;;19.90;88.80;;;;;;4936349;29;20201;-88
2023/09/10 06:44:22;;;;;;;2.28;0.90;;;20.00;89.10;;;;;;4928069;29;20656;-86
2023/09/10 06:46:52;;;;;;;1.52;0.60;;;20.00;89.60;;;;;;4938029;29;20695;-87
2023/09/10 06:49:23;;;;;;;6.50;0.88;;;20.20;87.10;;;;;;4926728;29;20205;-88
2023/09/10 06:51:54;;;;;;;2.38;0.70;;;20.20;87.70;;;;;;4919358;29;20231;-87
2023/09/10 06:54:25;;;;;;;3.08;1.00;;;20.00;89.10;;;;;;4923226;29;20197;-87
2023/09/10 06:56:58;;;;;;;3.42;0.98;;;20.00;89.90;;;;;;4935455;29;20201;-88
2023/09/10 06:59:30;;;;;;;4.50;0.90;;;19.80;90.50;;;;;;4926364;29;20201;-88
2023/09/10 07:02:01;;;;;;;1.70;0.70;;;19.50;89.40;;;;;;4938643;29;20200;-87
2023/09/10 07:04:32;;;;;;;1.30;0.50;;;19.30;89.40;;;;;;4937824;29;20240;-86
2023/09/10 07:07:03;;;;;;;2.53;0.80;;;18.90;90.50;;;;;;4941192;29;20228;-86
2023/09/10 07:09:34;;;;;;;5.28;1.00;;;18.80;91.30;;;;;;4953043;29;20721;-87
2023/09/10 07:12:05;;;;;;;3.67;0.90;;;18.70;91.60;;;;;;4930786;29;20638;-86
2023/09/10 07:14:39;;;;;;;3.92;0.85;;;18.40;93.30;;;;;;4925315;29;20666;-87
2023/09/10 07:17:10;;;;;;;1.02;0.63;;;18.30;93.70;;;;;;4937196;29;20674;-87
2023/09/10 07:19:41;;;;;;;2.40;1.00;;;18.30;94.20;;;;;;4930710;29;20207;-88
2023/09/10 07:22:11;;;;;;;1.20;0.70;;;18.20;94.40;;;;;;4938500;29;20204;-87
2023/09/10 07:24:42;;;;;;;3.17;1.20;;;18.00;96.10;;;;;;4939517;29;20208;-88
2023/09/10 07:27:13;;;;;;;1.98;0.80;;;17.90;97.30;;;;;;4937570;29;20216;-86
2023/09/10 07:29:46;;;;;;;2.63;1.40;;;17.90;97.80;;;;;;4924389;29;20549;-87
2023/09/10 07:32:16;;;;;;;1.92;0.65;;;17.70;97.10;;;;;;4921401;29;20239;-87
2023/09/10 07:34:47;;;;;;;1.80;0.65;;;17.50;97.50;;;;;;4937415;29;20251;-88
2023/09/10 07:37:18;;;;;;;3.13;0.70;;;17.40;97.60;;;;;;4938231;29;20200;-88
2023/09/10 07:39:48;;;;;;;2.42;1.10;;;17.30;97.70;;;;;;4938561;29;20215;-88
2023/09/10 07:42:19;;;;;;;2.42;1.65;;;17.30;97.80;;;;;;4936457;29;20201;-87
2023/09/10 07:44:52;;;;;;;2.13;1.20;;;17.30;97.40;;;;;;4937339;29;20677;-87
2023/09/10 07:47:23;;;;;;;2.53;1.40;;;17.30;97.50;;;;;;4918217;29;20220;-87
2023/09/10 07:49:54;;;;;;;2.67;1.10;;;17.20;98.20;;;;;;4932605;29;20197;-87
2023/09/10 07:52:27;;;;;;;2.63;1.10;;;17.20;98.80;;;;;;4936064;29;20232;-89
2023/09/10 07:54:58;;;;;;;3.88;2.10;;;17.10;99.60;;;;;;4937798;29;20207;-89
2023/09/10 07:57:29;;;;;;;2.17;1.13;;;17.10;99.90;;;;;;4937369;29;20208;-86
2023/09/10 08:00:04;;;;;;;1.55;0.75;;;17.10;99.90;;;;;;4935909;29;20197;-88
2023/09/10 08:02:34;;;;;;;2.35;0.80;;;17.00;99.90;;;;;;4942263;29;20211;-87
2023/09/10 08:05:05;;;;;;;2.28;1.02;;;17.00;99.90;;;;;;4937429;29;20215;-87
2023/09/10 08:07:36;;;;;;;2.67;0.90;;;16.90;99.90;;;;;;4936968;29;20235;-87
2023/09/10 08:10:07;;;;;;;2.50;0.90;;;16.90;99.90;;;;;;4937451;29;20687;-87
2023/09/10 08:12:38;;;;;;;2.45;1.27;;;17.00;99.90;;;;;;4930549;29;20219;-88
2023/09/10 08:15:12;;;;;;;3.45;1.48;;;16.90;99.90;;;;;;4947139;29;20273;-88
2023/09/10 08:17:43;;;;;;;5.15;1.50;;;16.80;99.90;;;;;;4923031;29;20240;-87
2023/09/10 08:20:15;;;;;;;3.28;2.03;;;16.80;99.90;;;;;;4931632;29;20211;-88
2023/09/10 08:22:47;;;;;;;7.55;4.20;;;16.80;99.90;;;;;;4920081;29;20200;-87
2023/09/10 08:25:18;;;;;;;9.20;5.07;;;16.70;99.90;;;;;;4936985;29;20204;-88
2023/09/10 08:27:49;;;;;;;6.35;2.92;;;16.70;99.90;;;;;;4937446;29;20189;-88
2023/09/10 08:30:22;;;;;;;4.70;2.15;;;16.70;99.90;;;;;;4937268;29;20209;-88
2023/09/10 08:32:56;;;;;;;4.25;1.85;;;16.70;99.90;;;;;;4937622;29;20295;-90
2023/09/10 08:35:46;;;;;;;3.83;1.90;;;16.60;99.90;;;;;;4938328;29;20227;-89
2023/09/10 08:38:18;;;;;;;3.38;1.30;;;16.60;99.90;;;;;;4923689;29;20239;-89
2023/09/10 08:41:06;;;;;;;3.58;1.50;;;16.60;99.90;;;;;;4919063;29;20233;-88
2023/09/10 08:43:51;;;;;;;3.55;1.42;;;16.60;99.90;;;;;;4936839;29;20201;-89
2023/09/10 08:46:30;;;;;;;2.85;1.50;;;16.60;99.90;;;;;;4936796;29;20204;-90
2023/09/10 08:49:03;;;;;;;4.55;1.70;;;16.60;99.90;;;;;;4936734;29;20214;-90
2023/09/10 08:51:35;;;;;;;4.40;1.67;;;16.60;99.90;;;;;;4936326;29;20755;-91
2023/09/10 08:54:11;;;;;;;5.72;2.10;;;16.60;99.90;;;;;;4933888;29;20239;-91
2023/09/10 08:56:42;;;;;;;2.83;1.48;;;16.60;99.90;;;;;;4936585;29;20208;-90
2023/09/10 08:59:16;;;;;;;3.05;1.50;;;16.60;99.90;;;;;;4937215;29;20247;-91
2023/09/10 09:01:48;;;;;;;4.20;1.98;;;16.50;99.90;;;;;;4936493;29;20660;-88
2023/09/10 09:04:19;;;;;;;4.45;1.80;;;16.50;99.90;;;;;;4935817;29;20553;-90
2023/09/10 09:06:55;;;;;;;3.92;2.72;;;16.50;99.90;;;;;;4935300;29;20236;-89
2023/09/10 09:09:32;;;;;;;6.65;2.70;;;16.40;99.90;;;;;;4932904;29;20200;-89
2023/09/10 09:12:04;;;;;;;5.53;2.33;;;16.40;99.90;;;;;;4935246;29;20205;-89
2023/09/10 09:14:42;;;;;;;4.47;2.08;;;16.40;99.90;;;;;;4935988;29;20204;-89
2023/09/10 09:17:17;;;;;;;2.92;1.60;;;16.40;99.90;;;;;;4937495;29;20208;-90
2023/09/10 09:19:50;;;;;;;2.95;1.30;;;16.40;99.90;;;;;;4926156;29;20189;-90
2023/09/10 09:22:24;;;;;;;2.10;1.13;;;16.40;99.90;;;;;;4934758;29;20296;-90
2023/09/10 09:24:56;;;;;;;2.20;1.00;;;16.30;99.90;;;;;;4928555;29;20204;-89
2023/09/10 09:27:27;;;;;;;1.95;1.00;;;16.30;99.90;;;;;;4934461;29;20200;-90
2023/09/10 09:29:59;;;;;;;1.98;0.95;;;16.30;99.90;;;;;;4935724;29;20203;-90
2023/09/10 09:32:33;;;;;;;2.00;1.10;;;16.30;99.90;;;;;;4935610;29;20755;-90
2023/09/10 09:35:04;;;;;;;2.58;1.00;;;16.20;99.90;;;;;;4935992;29;20651;-91
2023/09/10 09:37:35;;;;;;;2.83;1.10;;;16.30;99.90;;;;;;4935841;29;20230;-89
2023/09/10 09:40:09;;;;;;;2.17;1.17;;;16.20;99.90;;;;;;4919605;29;20201;-87
2023/09/10 09:42:44;;;;;;;2.55;1.38;;;16.20;99.90;;;;;;4936392;29;20222;-87
2023/09/10 09:45:16;;;;;;;3.08;1.10;;;16.20;99.90;;;;;;4924943;29;20487;-91
2023/09/10 09:47:52;;;;;;;3.03;1.40;;;16.20;99.90;;;;;;4939395;29;20211;-89
2023/09/10 09:50:24;;;;;;;3.65;1.25;;;16.20;99.90;;;;;;4937148;29;20200;-89
2023/09/10 09:52:56;;;;;;;2.35;1.05;;;16.20;99.90;;;;;;4913545;29;20265;-88
2023/09/10 09:55:27;;;;;;;2.47;1.15;;;16.20;99.90;;;;;;4928804;29;20193;-89
2023/09/10 09:57:57;;;;;;;2.78;1.20;;;16.20;99.90;;;;;;4937992;29;20664;-89
2023/09/10 10:00:28;;;;;;;3.17;1.20;;;16.20;99.90;;;;;;4935754;29;20200;-90
2023/09/10 10:03:01;;;;;;;2.47;0.93;;;16.10;99.90;;;;;;4935932;29;20243;-90
2023/09/10 10:05:34;;;;;;;2.67;1.00;;;16.10;99.90;;;;;;4941282;29;20201;-89
2023/09/10 10:08:06;;;;;;;2.47;1.10;;;16.10;99.90;;;;;;4950355;29;20288;-90
2023/09/10 10:10:39;;;;;;;2.67;1.05;;;16.10;99.90;;;;;;4928773;29;20229;-91
2023/09/10 10:13:10;;;;;;;2.50;1.33;;;16.00;99.90;;;;;;4921879;29;20225;-90
2023/09/10 10:15:41;;;;;;;2.42;1.05;;;16.00;99.90;;;;;;4919211;29;20208;-90
2023/09/10 10:18:14;;;;;;;2.22;1.25;;;16.00;99.90;;;;;;4919866;29;20203;-92
2023/09/10 10:20:49;;;;;;;4.70;1.50;;;16.00;99.90;;;;;;4937952;29;20212;-90
2023/09/10 10:23:22;;;;;;;2.65;1.20;;;16.00;99.90;;;;;;4939639;29;20199;-90
2023/09/10 10:25:54;;;;;;;2.65;1.15;;;16.00;99.90;;;;;;4938002;29;20203;-91
2023/09/10 10:28:26;;;;;;;1.60;0.93;;;16.00;99.90;;;;;;4952076;28;20212;-90
2023/09/10 10:31:04;;;;;;;4.93;1.60;;;16.00;99.90;;;;;;4938019;29;20211;-91
2023/09/10 10:33:39;;;;;;;2.97;2.17;;;15.90;99.90;;;;;;4933965;29;20707;-91
2023/09/10 10:36:17;;;;;;;2.90;2.33;;;15.90;99.90;;;;;;4940890;29;20204;-92
2023/09/10 10:38:48;;;;;;;4.25;2.13;;;15.90;99.90;;;;;;4934221;29;20683;-91
2023/09/10 10:41:22;;;;;;;5.18;2.90;;;15.90;99.90;;;;;;4915782;29;20209;-90
2023/09/10 10:43:58;;;;;;;4.15;2.78;;;15.80;99.90;;;;;;4926709;29;20213;-88
2023/09/10 10:46:30;;;;;;;6.88;4.93;;;15.80;99.90;;;;;;4937596;29;20694;-89
2023/09/10 10:49:05;;;;;;;5.55;3.50;;;15.80;99.90;;;;;;4941896;29;20208;-88
2023/09/10 10:51:41;;;;;;;6.50;3.70;;;15.80;99.90;;;;;;4939493;29;20664;-91
2023/09/10 10:54:15;;;;;;;6.85;4.10;;;15.70;99.90;;;;;;4931648;29;20762;-89
2023/09/10 10:56:45;;;;;;;6.68;4.18;;;15.70;99.90;;;;;;4941027;29;20237;-90
2023/09/10 10:59:17;;;;;;;6.53;3.88;;;15.70;99.90;;;;;;4934195;29;20216;-87
2023/09/10 11:02:15;;;;;;;6.35;4.15;;;15.70;99.90;;;;;;4920699;29;20208;-89
2023/09/10 11:05:02;;;;;;;4.80;3.60;;;15.70;99.90;;;;;;4933303;29;20196;-91
2023/09/10 11:07:34;;;;;;;5.15;3.70;;;15.70;99.90;;;;;;4940662;29;20267;-88
2023/09/10 11:10:43;;;;;;;5.15;2.97;;;15.60;99.90;;;;;;4950231;29;20197;-92
2023/09/10 11:13:15;;;;;;;5.95;3.15;;;15.60;99.90;;;;;;4941575;28;20722;-90
2023/09/10 11:16:19;;;;;;;6.30;3.08;;;15.60;99.90;;;;;;4928253;29;20201;-90
2023/09/10 11:18:51;;;;;;;4.47;2.50;;;15.60;99.90;;;;;;4944119;29;20192;-90
2023/09/10 11:21:23;;;;;;;3.40;2.28;;;15.60;99.90;;;;;;4935069;29;20196;-90
2023/09/10 11:24:27;;;;;;;5.63;2.35;;;15.60;99.90;;;;;;4938048;29;20211;-91
2023/09/10 11:27:22;;;;;;;7.00;2.80;;;15.60;99.90;;;;;;4938776;29;20675;-91
2023/09/10 11:30:15;;;;;;;5.82;2.60;;;15.50;99.90;;;;;;4938213;29;20204;-91
2023/09/10 11:32:46;;;;;;;12.50;4.63;;;15.50;99.90;;;;;;4935042;29;20230;-90
2023/09/10 11:35:30;;;;;;;8.55;3.50;;;15.50;99.90;;;;;;4954750;28;20216;-89
2023/09/10 11:38:03;;;;;;;5.10;3.78;;;15.40;99.90;;;;;;4940737;29;20212;-91
2023/09/10 11:40:33;;;;;;;6.75;3.97;;;15.40;99.90;;;;;;4940494;29;20209;-93
2023/09/10 11:43:05;;;;;;;6.18;3.97;;;15.40;99.90;;;;;;4941703;29;20215;-90
2023/09/10 11:45:36;;;;;;;6.47;3.97;;;15.30;99.90;;;;;;4922392;29;20197;-86
2023/09/10 11:48:08;;;;;;;7.78;3.75;;;15.30;99.90;;;;;;4937044;29;20206;-91
2023/09/10 11:50:39;;;;;;;6.97;3.60;;;15.30;99.90;;;;;;4940769;29;20619;-89
2023/09/10 11:53:13;;;;;;;5.13;3.33;;;15.30;99.90;;;;;;4940289;29;20224;-91
2023/09/10 11:55:44;;;;;;;6.15;3.60;;;15.10;99.90;;;;;;4933921;29;20560;-90
2023/09/10 11:58:15;;;;;;;7.50;4.00;;;15.00;99.90;;;;;;4938188;29;20201;-90
2023/09/10 12:00:46;;;;;;;10.52;4.43;;;15.00;99.90;;;;;;4931341;29;20313;-91
2023/09/10 12:03:18;;;;;;;6.20;3.58;;;14.90;99.90;;;;;;4932238;29;20193;-90
2023/09/10 12:05:49;;;;;;;8.02;4.15;;;14.80;99.90;;;;;;4927273;29;20209;-90
2023/09/10 12:08:24;;;;;;;6.72;3.78;;;14.70;99.90;;;;;;4943776;29;20211;-91
2023/09/10 12:11:02;;;;;;;8.73;3.85;;;14.70;99.90;;;;;;4952180;29;20200;-90
2023/09/10 12:13:35;;;;;;;6.88;3.72;;;14.80;99.90;;;;;;4938836;29;20288;-90
2023/09/10 12:16:08;;;;;;;5.68;3.58;;;14.80;99.90;;;;;;4938311;29;20224;-91
2023/09/10 12:18:39;;;;;;;6.90;3.90;;;14.80;99.90;;;;;;4935225;29;20210;-90
2023/09/10 12:21:14;;;;;;;6.30;3.50;;;14.80;99.90;;;;;;4927497;29;20197;-90
2023/09/10 12:23:48;;;;;;;7.05;3.90;;;14.80;99.90;;;;;;4926583;29;20260;-91
2023/09/10 12:26:21;;;;;;;7.78;4.18;;;14.80;99.90;;;;;;4920582;29;20198;-92
2023/09/10 12:28:52;;;;;;;7.55;3.60;;;14.80;99.90;;;;;;4922559;29;20213;-91
2023/09/10 12:31:24;;;;;;;7.05;3.88;;;14.80;99.90;;;;;;4921324;29;20565;-87
2023/09/10 12:33:55;;;;;;;6.00;3.50;;;14.80;99.90;;;;;;4935817;29;20329;-90
2023/09/10 12:36:25;;;;;;;6.38;3.40;;;14.70;99.90;;;;;;4918956;29;20209;-90
2023/09/10 12:38:59;;;;;;;7.95;4.15;;;14.70;99.90;;;;;;4924479;29;20203;-90
2023/09/10 12:41:30;;;;;;;8.05;4.45;;;14.70;99.90;;;;;;4937805;29;20212;-87
2023/09/10 12:44:02;;;;;;;7.35;3.90;;;14.70;99.90;;;;;;4946858;29;20272;-89
2023/09/10 12:46:34;;;;;;;6.43;3.42;;;14.70;99.90;;;;;;4932888;29;20205;-89
2023/09/10 12:49:05;;;;;;;6.53;3.85;;;14.60;99.90;;;;;;4923660;29;20209;-89
2023/09/10 12:51:36;;;;;;;8.50;3.65;;;14.60;99.90;;;;;;4924238;29;20204;-89
2023/09/10 12:54:09;;;;;;;5.85;3.33;;;14.60;99.90;;;;;;4925064;29;20231;-89
2023/09/10 12:56:41;;;;;;;4.88;3.38;;;14.60;99.90;;;;;;4915803;29;20201;-90
2023/09/10 12:59:12;;;;;;;6.25;3.70;;;14.60;99.90;;;;;;4917464;29;20217;-88
2023/09/10 13:01:43;;;;;;;5.35;3.38;;;14.60;99.90;;;;;;4938213;29;20203;-89
2023/09/10 13:04:14;;;;;;;7.78;3.58;;;14.50;99.90;;;;;;4935781;29;20293;-90
2023/09/10 13:06:45;;;;;;;8.85;4.05;;;14.50;99.90;;;;;;4932981;29;20279;-88
2023/09/10 13:09:18;;;;;;;6.68;4.65;;;14.50;99.90;;;;;;4927794;29;20205;-90
2023/09/10 13:11:52;;;;;;;11.10;7.82;;;14.50;99.90;;;;;;4931319;29;20199;-89
2023/09/10 13:14:22;;;;;;;12.88;8.43;;;14.50;99.90;;;;;;4927596;29;20770;-91